Time;durP1;ratioP1;P1;durP2;ratioP2;P2;SDS_P1;SDS_P2;PMS_P1;PMS_P2;Temp;Humidity;BMP_temperature;BMP_pressure;BME280_temperature;BME280_humidity;BME280_pressure;Samples;Min_cycle;Max_cycle;Signal;HPM_P1;HPM_P2
2023/09/19 00:01:20;;;;;;;18.27;15.98;;;589.60;2432.00;;;;;;5070342;28;20039;-68
2023/09/19 00:03:46;;;;;;;22.98;16.50;;;614.60;2432.00;;;;;;5088228;28;20024;-62
2023/09/19 00:06:15;;;;;;;16.77;14.95;;;589.50;2432.00;;;;;;5089180;28;20492;-62
2023/09/19 00:08:44;;;;;;;19.90;15.93;;;589.50;2432.00;;;;;;5082227;28;20480;-63
2023/09/19 00:11:10;;;;;;;18.67;15.45;;;589.60;2432.00;;;;;;5081320;28;20474;-68
2023/09/19 00:13:36;;;;;;;16.88;14.82;;;614.70;2432.00;;;;;;5088869;28;20028;-71
2023/09/19 00:16:10;;;;;;;18.98;15.30;;;589.60;2432.00;;;;;;5087080;28;20105;-63
2023/09/19 00:18:36;;;;;;;25.02;16.58;;;589.60;2432.00;;;;;;5089646;28;20012;-67
2023/09/19 00:21:04;;;;;;;17.60;15.23;;;589.60;2432.00;;;;;;5088724;28;20023;-63
2023/09/19 00:23:31;;;;;;;16.52;14.77;;;589.60;2432.00;;;;;;5088944;28;20020;-62
2023/09/19 00:26:00;;;;;;;18.55;15.80;;;589.60;2432.00;;;;;;5089080;28;20016;-62
2023/09/19 00:28:27;;;;;;;21.50;13.00;;;589.60;2432.00;;;;;;5089517;28;20027;-66
2023/09/19 00:30:55;;;;;;;21.77;14.85;;;589.50;2432.00;;;;;;5074949;28;20024;-62
2023/09/19 00:33:24;;;;;;;17.33;14.45;;;589.50;2432.00;;;;;;5075597;28;20432;-62
2023/09/19 00:35:51;;;;;;;20.50;14.40;;;589.60;2432.00;;;;;;5068241;28;20035;-65
2023/09/19 00:38:21;;;;;;;20.50;15.52;;;589.60;2432.00;;;;;;5088832;28;20023;-64
2023/09/19 00:40:47;;;;;;;17.10;14.57;;;589.50;2432.00;;;;;;5088619;28;20109;-62
2023/09/19 00:43:13;;;;;;;18.00;16.10;;;589.50;2432.00;;;;;;5087191;28;20409;-62
2023/09/19 00:45:43;;;;;;;17.38;14.30;;;589.50;2432.00;;;;;;5088256;28;20020;-62
2023/09/19 00:48:10;;;;;;;24.65;16.10;;;589.50;2432.00;;;;;;5089026;28;20039;-70
2023/09/19 00:50:36;;;;;;;17.25;14.25;;;589.50;2432.00;;;;;;5088393;28;20095;-69
2023/09/19 00:53:13;;;;;;;15.90;13.77;;;589.50;2432.00;;;;;;5087085;28;20363;-62
2023/09/19 00:55:40;;;;;;;17.40;14.25;;;589.30;2432.00;;;;;;5088363;28;20028;-63
2023/09/19 00:58:06;;;;;;;17.08;14.52;;;589.50;2432.00;;;;;;5090949;28;20099;-66
2023/09/19 01:00:36;;;;;;;19.63;13.73;;;589.30;2432.00;;;;;;5092345;28;20558;-69
2023/09/19 01:03:02;;;;;;;17.25;13.38;;;589.30;2432.00;;;;;;5090955;28;20028;-66
2023/09/19 01:05:28;;;;;;;17.48;13.30;;;589.10;2432.00;;;;;;5092467;28;20028;-70
2023/09/19 01:07:54;;;;;;;17.15;13.65;;;589.10;2432.00;;;;;;5075539;28;20021;-62
2023/09/19 01:10:21;;;;;;;15.77;13.63;;;589.00;2432.00;;;;;;5091789;28;20031;-63
2023/09/19 01:13:08;;;;;;;16.35;14.50;;;588.90;2432.00;;;;;;5092262;28;20382;-69
2023/09/19 01:15:40;;;;;;;22.95;15.82;;;589.10;2432.00;;;;;;5070137;28;20063;-62
2023/09/19 01:18:35;;;;;;;20.08;17.23;;;588.80;2432.00;;;;;;5092202;28;20104;-63
2023/09/19 01:21:10;;;;;;;22.63;16.50;;;588.80;2432.00;;;;;;5092336;28;20024;-62
2023/09/19 01:24:03;;;;;;;20.90;15.25;;;589.00;2432.00;;;;;;5092552;28;20032;-62
2023/09/19 01:26:29;;;;;;;21.65;16.20;;;589.10;2432.00;;;;;;5092457;28;20048;-62
2023/09/19 01:29:29;;;;;;;21.00;15.95;;;589.10;2432.00;;;;;;5092396;28;20032;-67
2023/09/19 01:32:01;;;;;;;18.50;15.82;;;589.20;2432.00;;;;;;5073020;28;20462;-65
2023/09/19 01:34:27;;;;;;;25.60;18.65;;;589.20;2432.00;;;;;;5091683;28;20017;-65
2023/09/19 01:36:52;;;;;;;24.70;16.40;;;588.90;2432.00;;;;;;5076412;28;20033;-62
2023/09/19 01:39:18;;;;;;;19.95;16.42;;;589.10;2432.00;;;;;;5081449;28;20040;-62
2023/09/19 01:41:55;;;;;;;23.23;17.52;;;589.10;2432.00;;;;;;5092087;28;20036;-67
2023/09/19 01:44:48;;;;;;;17.98;16.08;;;589.10;2432.00;;;;;;5091702;28;20502;-63
2023/09/19 01:47:23;;;;;;;27.88;16.75;;;589.20;2432.00;;;;;;5091449;28;20027;-63
2023/09/19 01:50:00;;;;;;;22.17;15.98;;;589.20;2432.00;;;;;;5091978;28;20024;-62
2023/09/19 01:52:30;;;;;;;20.42;16.40;;;589.20;2432.00;;;;;;5091987;28;20055;-62
2023/09/19 01:55:07;;;;;;;26.25;16.75;;;589.20;2432.00;;;;;;5091569;28;20081;-62
2023/09/19 01:57:58;;;;;;;19.05;16.33;;;589.20;2432.00;;;;;;5091586;28;20555;-62
2023/09/19 02:00:25;;;;;;;18.02;15.68;;;589.20;2432.00;;;;;;5091482;28;20043;-62
2023/09/19 02:02:52;;;;;;;19.25;16.40;;;589.20;2432.00;;;;;;5091101;28;20060;-62
2023/09/19 02:05:25;;;;;;;19.90;16.13;;;589.20;2432.00;;;;;;5091578;28;20024;-65
2023/09/19 02:07:52;;;;;;;21.23;15.90;;;589.10;2432.00;;;;;;5091639;28;20016;-64
2023/09/19 02:10:18;;;;;;;16.17;14.52;;;589.10;2432.00;;;;;;5070326;28;20040;-62
2023/09/19 02:12:45;;;;;;;22.42;16.92;;;589.10;2432.00;;;;;;5084984;28;20028;-62
2023/09/19 02:15:10;;;;;;;21.02;16.15;;;589.00;2432.00;;;;;;5091515;28;20043;-62
2023/09/19 02:17:36;;;;;;;22.88;16.58;;;588.90;2432.00;;;;;;5091304;28;20020;-63
2023/09/19 02:20:10;;;;;;;16.58;14.98;;;588.90;2432.00;;;;;;5091461;28;20012;-65
2023/09/19 02:22:36;;;;;;;21.70;17.02;;;588.90;2432.00;;;;;;5091306;28;20510;-62
2023/09/19 02:25:05;;;;;;;19.70;15.52;;;589.00;2432.00;;;;;;5091302;28;20478;-64
2023/09/19 02:27:31;;;;;;;19.17;15.45;;;589.00;2432.00;;;;;;5090483;28;20034;-67
2023/09/19 02:29:56;;;;;;;18.52;15.00;;;589.10;2432.00;;;;;;5091246;28;20020;-65
2023/09/19 02:32:23;;;;;;;20.35;14.75;;;589.00;2432.00;;;;;;5090452;28;20038;-62
2023/09/19 02:34:51;;;;;;;20.75;14.23;;;588.90;2432.00;;;;;;5090700;28;20493;-64
2023/09/19 02:37:18;;;;;;;24.92;15.52;;;588.90;2432.00;;;;;;5090564;28;20474;-69
2023/09/19 02:39:44;;;;;;;16.98;15.10;;;589.00;2432.00;;;;;;5088793;28;20044;-62
2023/09/19 02:42:10;;;;;;;20.63;14.32;;;589.00;2432.00;;;;;;5085798;28;20031;-65
2023/09/19 02:44:37;;;;;;;16.83;14.02;;;589.10;2432.00;;;;;;5064189;28;20583;-63
2023/09/19 02:47:04;;;;;;;19.63;15.25;;;589.10;2432.00;;;;;;5085056;28;20024;-62
2023/09/19 02:49:29;;;;;;;22.17;15.60;;;589.10;2432.00;;;;;;5090580;28;20028;-65
2023/09/19 02:51:55;;;;;;;23.58;16.80;;;588.90;2432.00;;;;;;5090192;28;20043;-65
2023/09/19 02:54:21;;;;;;;18.75;15.88;;;589.10;2432.00;;;;;;5090485;28;20016;-62
2023/09/19 02:56:47;;;;;;;16.23;14.27;;;589.10;2432.00;;;;;;5089418;28;20111;-62
2023/09/19 02:59:14;;;;;;;19.20;14.77;;;589.10;2432.00;;;;;;5078305;28;20059;-62
2023/09/19 03:01:42;;;;;;;16.40;14.68;;;589.00;2432.00;;;;;;5089526;28;20028;-66
2023/09/19 03:04:09;;;;;;;18.83;15.57;;;589.00;2432.00;;;;;;5090749;28;20024;-63
2023/09/19 03:06:35;;;;;;;20.92;15.07;;;589.00;2432.00;;;;;;5090536;28;20024;-67
2023/09/19 03:09:02;;;;;;;20.10;15.73;;;588.90;2432.00;;;;;;5090428;28;20373;-68
2023/09/19 03:11:28;;;;;;;17.40;15.00;;;588.80;2432.00;;;;;;5089928;28;20386;-63
2023/09/19 03:13:54;;;;;;;22.58;16.63;;;588.80;2432.00;;;;;;5090534;28;20024;-70
2023/09/19 03:16:21;;;;;;;19.75;15.35;;;588.80;2432.00;;;;;;5070569;28;20036;-61
2023/09/19 03:18:50;;;;;;;19.98;14.75;;;588.80;2432.00;;;;;;5081621;28;20029;-69
2023/09/19 03:21:19;;;;;;;17.52;15.02;;;588.80;2432.00;;;;;;5089075;28;20111;-70
2023/09/19 03:23:45;;;;;;;19.30;15.48;;;564.10;2432.00;;;;;;5090175;28;20035;-65
2023/09/19 03:26:12;;;;;;;24.77;16.40;;;564.10;2432.00;;;;;;5089278;28;20028;-62
2023/09/19 03:28:38;;;;;;;20.15;16.27;;;564.10;2432.00;;;;;;5079026;28;20039;-63
2023/09/19 03:31:06;;;;;;;18.33;15.70;;;564.00;2432.00;;;;;;5087235;28;20020;-62
2023/09/19 03:33:32;;;;;;;18.15;16.25;;;564.10;2432.00;;;;;;5089999;28;20020;-64
2023/09/19 03:36:00;;;;;;;23.60;16.40;;;564.10;2432.00;;;;;;5089468;28;20081;-62
2023/09/19 03:38:26;;;;;;;19.98;15.48;;;588.80;2432.00;;;;;;5088487;28;20016;-67
2023/09/19 03:40:52;;;;;;;18.10;15.43;;;588.80;2432.00;;;;;;5089291;28;20056;-63
2023/09/19 03:43:18;;;;;;;21.67;15.75;;;588.80;2432.00;;;;;;5089535;28;20027;-62
2023/09/19 03:45:46;;;;;;;17.25;15.23;;;564.10;2432.00;;;;;;5081652;28;20594;-69
2023/09/19 03:48:12;;;;;;;17.70;15.77;;;564.10;2432.00;;;;;;5068712;28;20043;-63
2023/09/19 03:50:39;;;;;;;17.40;15.55;;;564.10;2432.00;;;;;;5085587;28;20508;-67
2023/09/19 03:53:07;;;;;;;23.15;16.30;;;564.10;2432.00;;;;;;5084185;28;20028;-65
2023/09/19 03:55:35;;;;;;;18.85;15.90;;;564.10;2432.00;;;;;;5084231;28;20028;-62
2023/09/19 03:58:01;;;;;;;19.25;16.70;;;564.00;2432.00;;;;;;5059064;28;20358;-64
2023/09/19 04:00:27;;;;;;;19.20;15.63;;;564.10;2432.00;;;;;;5072596;28;20029;-62
2023/09/19 04:02:53;;;;;;;22.58;15.43;;;564.00;2432.00;;;;;;5077635;28;20347;-65
2023/09/19 04:05:19;;;;;;;19.42;15.77;;;564.00;2432.00;;;;;;5089570;28;20032;-62
2023/09/19 04:07:45;;;;;;;23.70;15.82;;;564.00;2432.00;;;;;;5089023;28;20031;-62
2023/09/19 04:10:14;;;;;;;17.50;13.40;;;563.90;2432.00;;;;;;5088879;28;20036;-67
2023/09/19 04:12:40;;;;;;;16.65;13.98;;;563.90;2432.00;;;;;;5089572;28;20112;-63
2023/09/19 04:15:08;;;;;;;18.50;14.25;;;563.90;2432.00;;;;;;5087590;28;20039;-65
2023/09/19 04:17:34;;;;;;;16.65;14.18;;;563.80;2432.00;;;;;;5087363;28;20501;-63
2023/09/19 04:19:59;;;;;;;21.58;15.15;;;563.70;2432.00;;;;;;5089180;28;21010;-62
2023/09/19 04:22:26;;;;;;;18.63;15.13;;;563.60;2432.00;;;;;;5089284;28;20466;-74
2023/09/19 04:24:51;;;;;;;15.63;13.77;;;563.60;2432.00;;;;;;5065686;28;20028;-64
2023/09/19 04:27:18;;;;;;;15.75;13.98;;;563.60;2432.00;;;;;;5078710;28;20031;-63
2023/09/19 04:29:44;;;;;;;16.38;14.20;;;563.50;2432.00;;;;;;5088845;28;20012;-67
2023/09/19 04:32:10;;;;;;;17.05;13.30;;;563.60;2432.00;;;;;;5088407;28;20050;-69
2023/09/19 04:34:38;;;;;;;16.98;14.45;;;563.60;2432.00;;;;;;5088501;28;20012;-62
2023/09/19 04:37:04;;;;;;;17.42;14.40;;;563.60;2432.00;;;;;;5088990;28;20028;-62
2023/09/19 04:39:29;;;;;;;16.95;14.10;;;563.80;2432.00;;;;;;5088586;28;20047;-63
2023/09/19 04:41:55;;;;;;;18.67;14.73;;;563.80;2432.00;;;;;;5088902;28;20028;-62
2023/09/19 04:44:21;;;;;;;17.58;14.57;;;563.90;2432.00;;;;;;5088575;28;20024;-64
2023/09/19 04:46:47;;;;;;;17.95;14.52;;;563.90;2432.00;;;;;;5088789;28;20024;-62
2023/09/19 04:49:13;;;;;;;19.55;14.73;;;564.00;2432.00;;;;;;5088145;28;20032;-65
2023/09/19 04:51:40;;;;;;;17.38;12.02;;;564.00;2432.00;;;;;;5088960;28;20031;-69
2023/09/19 04:54:06;;;;;;;18.73;13.68;;;563.90;2432.00;;;;;;5088753;28;20073;-65
2023/09/19 04:56:33;;;;;;;27.52;15.40;;;563.90;2432.00;;;;;;5085300;28;20028;-63
2023/09/19 04:58:59;;;;;;;22.42;15.57;;;564.00;2432.00;;;;;;5065655;28;20100;-67
2023/09/19 05:01:26;;;;;;;22.48;14.93;;;564.00;2432.00;;;;;;5082158;28;20466;-64
2023/09/19 05:03:54;;;;;;;18.02;13.38;;;564.10;2432.00;;;;;;5062060;28;20016;-62
2023/09/19 05:06:21;;;;;;;18.35;13.90;;;588.80;2432.00;;;;;;5088255;28;20028;-63
2023/09/19 05:08:53;;;;;;;18.17;13.38;;;588.80;2432.00;;;;;;5088592;28;20024;-62
2023/09/19 05:11:21;;;;;;;18.63;14.10;;;588.80;2432.00;;;;;;5088497;28;20451;-62
2023/09/19 05:13:47;;;;;;;18.45;13.80;;;588.90;2432.00;;;;;;5088500;28;20025;-66
2023/09/19 05:16:13;;;;;;;17.98;14.23;;;588.90;2432.00;;;;;;5087934;28;20039;-62
2023/09/19 05:18:39;;;;;;;23.23;15.68;;;588.90;2432.00;;;;;;5087048;28;20073;-63
2023/09/19 05:21:05;;;;;;;20.88;14.52;;;588.90;2432.00;;;;;;5087983;28;20029;-65
2023/09/19 05:23:31;;;;;;;15.10;13.18;;;588.90;2432.00;;;;;;5088890;28;20020;-63
2023/09/19 05:25:59;;;;;;;19.10;15.00;;;589.00;2432.00;;;;;;5088609;28;20073;-62
2023/09/19 05:28:26;;;;;;;20.88;15.57;;;589.10;2432.00;;;;;;5088654;28;20032;-65
2023/09/19 05:30:53;;;;;;;19.00;14.27;;;589.10;2432.00;;;;;;5081488;28;20020;-62
2023/09/19 05:33:19;;;;;;;20.73;12.82;;;589.20;2432.00;;;;;;5078108;28;20386;-63
2023/09/19 05:35:46;;;;;;;18.30;13.50;;;589.40;2432.00;;;;;;5088067;28;20036;-66
2023/09/19 05:38:13;;;;;;;19.27;14.70;;;589.70;2432.00;;;;;;5087844;28;20012;-66
2023/09/19 05:40:42;;;;;;;17.98;15.88;;;614.40;2432.00;;;;;;5087867;28;20082;-62
2023/09/19 05:43:08;;;;;;;22.88;16.40;;;614.40;2432.00;;;;;;5088352;28;20058;-62
2023/09/19 05:45:35;;;;;;;21.98;16.88;;;614.70;2432.00;;;;;;5089873;28;20078;-63
2023/09/19 05:48:13;;;;;;;26.83;17.73;;;615.10;2432.00;;;;;;5091865;28;20026;-63
2023/09/19 05:50:40;;;;;;;17.33;15.55;;;;;;;;;;5091868;28;20012;-69
2023/09/19 05:53:06;;;;;;;23.13;18.23;;;614.90;2432.00;;;;;;5092198;28;20035;-63
2023/09/19 05:55:32;;;;;;;26.05;15.50;;;;;;;;;;5091450;28;20081;-68
2023/09/19 05:57:59;;;;;;;21.67;16.70;;;640.60;2432.00;;;;;;5079664;28;20099;-64
2023/09/19 06:00:27;;;;;;;20.70;15.93;;;691.70;2432.00;;;;;;5084536;28;20024;-63
2023/09/19 06:02:58;;;;;;;18.60;16.00;;;717.30;2432.00;;;;;;5080982;28;20028;-63
2023/09/19 06:05:26;;;;;;;25.27;17.48;;;742.60;2432.00;;;;;;5065778;28;20074;-63
2023/09/19 06:07:52;;;;;;;19.00;16.85;;;743.30;2432.00;;;;;;5080084;28;20057;-64
2023/09/19 06:10:20;;;;;;;22.05;17.42;;;768.50;2380.80;;;;;;5089165;28;20032;-63
2023/09/19 06:12:48;;;;;;;20.38;17.92;;;768.90;2304.00;;;;;;5079751;28;20539;-63
2023/09/19 06:15:15;;;;;;;20.42;17.00;;;768.70;2329.60;;;;;;5078316;28;20089;-66
2023/09/19 06:17:48;;;;;;;17.95;16.10;;;768.20;2329.60;;;;;;5087122;28;20455;-62
2023/09/19 06:20:14;;;;;;;19.75;17.55;;;768.10;2329.60;;;;;;5071216;28;20548;-64
2023/09/19 06:22:45;;;;;;;24.80;18.58;;;768.20;2329.60;;;;;;5086279;28;20055;-63
2023/09/19 06:25:12;;;;;;;25.85;16.85;;;768.10;2304.00;;;;;;5091590;28;20024;-65
2023/09/19 06:27:42;;;;;;;23.92;16.45;;;743.20;2304.00;;;;;;5090929;28;20030;-62
2023/09/19 06:30:09;;;;;;;21.85;17.13;;;743.00;2329.60;;;;;;5090671;28;20020;-63
2023/09/19 06:32:35;;;;;;;22.48;16.50;;;743.10;2355.20;;;;;;5090927;28;20020;-63
2023/09/19 06:35:02;;;;;;;21.33;17.05;;;794.30;2176.00;;;;;;5091374;28;20024;-63
2023/09/19 06:37:29;;;;;;;20.98;16.58;;;845.50;2022.40;;;;;;5091090;28;20052;-65
2023/09/19 06:39:54;;;;;;;20.80;16.10;;;870.80;1945.60;;;;;;5090353;28;20040;-63
2023/09/19 06:42:22;;;;;;;24.17;20.45;;;896.90;1817.60;;;;;;5091037;28;20117;-70
2023/09/19 06:44:48;;;;;;;22.30;19.10;;;922.00;1792.00;;;;;;5067108;28;20024;-64
2023/09/19 06:47:16;;;;;;;23.73;17.20;;;922.00;1740.80;;;;;;5080709;28;20041;-64
2023/09/19 06:49:43;;;;;;;17.33;15.35;;;871.10;1843.20;;;;;;5091438;28;20286;-67
2023/09/19 06:52:10;;;;;;;20.80;13.82;;;870.70;1817.60;;;;;;5090891;28;20027;-64
2023/09/19 06:54:35;;;;;;;22.90;15.25;;;845.10;1894.40;;;;;;5090801;28;20462;-63
2023/09/19 06:57:01;;;;;;;18.40;14.43;;;819.30;1996.80;;;;;;5088802;28;20119;-63
2023/09/19 06:59:27;;;;;;;21.25;15.30;;;768.70;2073.60;;;;;;5090784;28;20020;-63
2023/09/19 07:01:53;;;;;;;20.60;15.38;;;768.30;2150.40;;;;;;5087104;28;20023;-65
2023/09/19 07:04:22;;;;;;;21.63;14.90;;;742.80;2227.20;;;;;;5080413;28;20048;-63
2023/09/19 07:06:51;;;;;;;19.90;16.15;;;;;;;;;;5090967;28;20419;-63
2023/09/19 07:09:19;;;;;;;22.50;16.08;;;;;;;;;;5061134;28;20016;-63
2023/09/19 07:11:45;;;;;;;21.83;15.25;;;717.50;2278.40;;;;;;5070031;28;20033;-64
2023/09/19 07:14:11;;;;;;;23.70;15.35;;;717.60;2304.00;;;;;;5070332;28;20013;-67
2023/09/19 07:16:39;;;;;;;17.08;15.20;;;742.40;2278.40;;;;;;5065714;28;20043;-63
2023/09/19 07:19:05;;;;;;;27.35;16.08;;;717.50;2329.60;;;;;;5079024;28;20019;-63
2023/09/19 07:21:32;;;;;;;24.90;15.65;;;717.70;2380.80;;;;;;5089921;28;20024;-63
2023/09/19 07:24:00;;;;;;;24.63;16.40;;;717.40;2406.40;;;;;;5090478;28;20040;-64
2023/09/19 07:26:27;;;;;;;19.95;16.85;;;717.20;2406.40;;;;;;5090360;28;20020;-63
2023/09/19 07:28:54;;;;;;;22.95;15.50;;;717.20;2380.80;;;;;;5090115;28;20024;-63
2023/09/19 07:31:22;;;;;;;17.35;15.50;;;717.10;2380.80;;;;;;5089949;28;20024;-63
2023/09/19 07:33:48;;;;;;;25.02;15.80;;;717.20;2380.80;;;;;;5090354;28;20039;-66
2023/09/19 07:36:14;;;;;;;23.60;15.43;;;717.20;2406.40;;;;;;5089638;28;20044;-65
2023/09/19 07:38:41;;;;;;;28.45;16.35;;;717.20;2432.00;;;;;;5089877;28;20052;-64
2023/09/19 07:41:08;;;;;;;25.88;19.33;;;717.40;2432.00;;;;;;5090218;28;20032;-62
2023/09/19 07:43:35;;;;;;;20.20;17.52;;;742.40;2380.80;;;;;;5089679;28;20099;-64
2023/09/19 07:46:06;;;;;;;20.10;16.38;;;717.70;2355.20;;;;;;5089655;28;20031;-63
2023/09/19 07:48:33;;;;;;;22.13;16.77;;;717.40;2432.00;;;;;;5088395;28;20020;-63
2023/09/19 07:51:06;;;;;;;23.70;18.08;;;717.50;2432.00;;;;;;5065412;28;20013;-63
2023/09/19 07:53:36;;;;;;;;;;;717.10;2432.00;;;;;;5084569;28;20373;-63
2023/09/19 07:56:06;;;;;;;22.80;16.80;;;717.10;2432.00;;;;;;5089366;28;20263;-64
2023/09/19 07:58:37;;;;;;;23.95;18.23;;;717.40;2432.00;;;;;;5088977;28;20012;-64
2023/09/19 08:01:10;;;;;;;21.38;17.65;;;742.70;2432.00;;;;;;5089374;28;20055;-63
2023/09/19 08:03:43;;;;;;;21.42;18.23;;;743.00;2432.00;;;;;;5089559;28;20095;-67
2023/09/19 08:06:09;;;;;;;;;;;743.30;2355.20;;;;;;5089914;28;20026;-63
2023/09/19 08:08:37;;;;;;;28.20;16.38;;;743.10;2355.20;;;;;;5087076;28;19912;-65
2023/09/19 08:11:11;;;;;;;24.67;18.27;;;743.10;2380.80;;;;;;5089376;28;20032;-66
2023/09/19 08:13:43;;;;;;;26.77;20.17;;;742.60;2432.00;;;;;;5089458;28;20024;-63
2023/09/19 08:16:10;;;;;;;26.10;18.27;;;742.50;2432.00;;;;;;5089219;28;20032;-63
2023/09/19 08:18:39;;;;;;;27.67;18.33;;;742.40;2432.00;;;;;;5088992;28;20382;-63
2023/09/19 08:21:08;;;;;;;26.08;18.30;;;717.50;2432.00;;;;;;5089008;28;20032;-62
2023/09/19 08:23:33;;;;;;;29.33;19.45;;;717.20;2432.00;;;;;;5070884;28;20064;-60
2023/09/19 08:26:03;;;;;;;25.17;17.20;;;717.20;2432.00;;;;;;5064946;28;20064;-60
2023/09/19 08:28:29;;;;;;;30.55;18.40;;;717.20;2432.00;;;;;;5087002;28;20024;-60
2023/09/19 08:30:55;;;;;;;20.15;16.27;;;717.10;2432.00;;;;;;5087417;28;20028;-61
2023/09/19 08:33:21;;;;;;;26.65;18.95;;;717.30;2432.00;;;;;;5087952;28;20794;-61
2023/09/19 08:35:47;;;;;;;21.88;18.70;;;717.50;2432.00;;;;;;5087738;28;20120;-61
2023/09/19 08:38:14;;;;;;;25.92;17.75;;;794.00;2380.80;;;;;;5087105;28;20004;-62
2023/09/19 08:40:42;;;;;;;25.20;17.10;;;793.90;2304.00;;;;;;5087513;28;20495;-61
2023/09/19 08:43:07;;;;;;;25.63;17.50;;;768.80;2278.40;;;;;;5078650;28;20111;-61
2023/09/19 08:45:34;;;;;;;24.52;17.80;;;768.40;2355.20;;;;;;5083136;28;20150;-61
2023/09/19 08:48:28;;;;;;;23.35;17.60;;;768.60;2380.80;;;;;;5087441;28;20118;-60
2023/09/19 08:51:32;;;;;;;20.25;17.08;;;768.40;2329.60;;;;;;5086846;28;20054;-63
2023/09/19 08:54:07;;;;;;;25.00;16.17;;;768.20;2329.60;;;;;;5004881;28;20439;-61
2023/09/19 08:56:34;;;;;;;100.18;26.48;;;768.10;2355.20;;;;;;5000241;28;20575;-62
2023/09/19 08:59:11;;;;;;;25.77;17.63;;;768.40;2355.20;;;;;;4995289;28;20488;-61
2023/09/19 09:01:39;;;;;;;23.55;16.25;;;793.70;2329.60;;;;;;5006206;28;20026;-62
2023/09/19 09:04:09;;;;;;;19.50;15.10;;;794.00;2227.20;;;;;;5006144;28;20532;-61
2023/09/19 09:06:35;;;;;;;19.88;14.45;;;794.20;2201.60;;;;;;4992250;28;20057;-60
2023/09/19 09:09:03;;;;;;;18.85;14.35;;;794.40;2201.60;;;;;;5002760;28;20050;-61
2023/09/19 09:11:32;;;;;;;24.33;16.45;;;819.30;2124.80;;;;;;5000119;28;20029;-60
2023/09/19 09:13:58;;;;;;;20.52;15.93;;;819.20;2176.00;;;;;;4995715;28;20026;-59
2023/09/19 09:16:25;;;;;;;22.58;13.88;;;819.30;2150.40;;;;;;4986968;28;20181;-61
2023/09/19 09:18:54;;;;;;;23.05;14.48;;;819.20;2150.40;;;;;;4987409;28;20022;-59
2023/09/19 09:21:21;;;;;;;24.30;17.25;;;819.20;2176.00;;;;;;4999116;28;20112;-61
2023/09/19 09:23:49;;;;;;;23.38;15.13;;;819.30;2176.00;;;;;;5001908;28;20157;-61
2023/09/19 09:26:16;;;;;;;23.85;16.58;;;819.30;2201.60;;;;;;5010207;28;20105;-62
2023/09/19 09:28:45;;;;;;;21.98;16.33;;;819.70;2201.60;;;;;;5018592;28;20123;-63
2023/09/19 09:31:24;;;;;;;20.95;15.63;;;819.60;2150.40;;;;;;5091668;28;20530;-62
2023/09/19 09:33:57;;;;;;;25.83;15.88;;;819.40;2150.40;;;;;;5075309;28;20037;-63
2023/09/19 09:36:38;;;;;;;23.83;15.05;;;819.60;2124.80;;;;;;5085188;28;20040;-62
2023/09/19 09:39:24;;;;;;;30.75;17.02;;;820.00;2099.20;;;;;;5091674;28;20059;-62
2023/09/19 09:41:50;;;;;;;26.70;15.95;;;820.10;2048.00;;;;;;5092246;28;20031;-61
2023/09/19 09:44:18;;;;;;;22.73;15.25;;;819.80;2048.00;;;;;;5091971;28;20043;-61
2023/09/19 09:49:34;;;;;;;26.40;15.02;;;819.80;2022.40;;;;;;5091779;28;20072;-61
2023/09/19 09:52:08;;;;;;;26.23;14.43;;;819.20;2022.40;;;;;;5092455;28;20059;-64
2023/09/19 09:54:37;;;;;;;23.25;14.65;;;819.30;1996.80;;;;;;5090641;28;20039;-62
2023/09/19 09:57:14;;;;;;;23.13;14.68;;;819.40;1996.80;;;;;;5088209;28;20024;-64
2023/09/19 10:02:36;;;;;;;31.08;15.00;;;819.30;1996.80;;;;;;5066934;28;20082;-63
2023/09/19 10:07:41;;;;;;;26.20;15.65;;;794.50;2022.40;;;;;;5090107;28;20464;-63
2023/09/19 10:10:16;;;;;;;20.88;12.93;;;819.20;2022.40;;;;;;5086255;28;20031;-61
2023/09/19 10:12:48;;;;;;;23.95;13.57;;;794.30;1996.80;;;;;;5071392;28;20719;-62
2023/09/19 10:15:20;;;;;;;24.60;14.23;;;794.30;2022.40;;;;;;5089294;28;20055;-62
2023/09/19 10:17:47;;;;;;;24.45;15.13;;;819.50;1971.20;;;;;;5088395;28;20024;-61
2023/09/19 10:20:33;;;;;;;29.20;14.55;;;820.00;1971.20;;;;;;5089393;28;20021;-61
2023/09/19 10:23:00;;;;;;;27.02;12.85;;;820.00;1894.40;;;;;;5087049;28;20397;-62
2023/09/19 10:25:30;;;;;;;27.13;15.23;;;820.00;1945.60;;;;;;5079070;28;20111;-63
2023/09/19 10:28:02;;;;;;;32.53;15.23;;;819.60;1996.80;;;;;;5089503;28;20085;-62
2023/09/19 10:30:30;;;;;;;25.60;13.98;;;819.60;1996.80;;;;;;5089234;28;20020;-61
2023/09/19 10:33:04;;;;;;;24.98;14.55;;;819.90;1971.20;;;;;;5089616;28;20024;-62
2023/09/19 10:35:33;;;;;;;25.40;13.15;;;844.90;1996.80;;;;;;5075912;28;20585;-61
2023/09/19 10:38:02;;;;;;;21.02;13.77;;;;;;;;;;5089717;28;20104;-65
2023/09/19 10:40:31;;;;;;;21.42;13.57;;;;;;;;;;5083174;28;20533;-61
2023/09/19 10:43:05;;;;;;;26.55;12.43;;;819.60;1971.20;;;;;;5082411;28;20027;-63
2023/09/19 10:45:35;;;;;;;24.95;12.73;;;819.60;1945.60;;;;;;5091148;28;20467;-63
2023/09/19 10:48:04;;;;;;;23.40;12.68;;;819.30;1945.60;;;;;;5091155;28;20064;-63
2023/09/19 10:50:50;;;;;;;25.50;13.00;;;819.30;1920.00;;;;;;5090867;28;20035;-63
2023/09/19 10:53:20;;;;;;;24.73;12.38;;;819.20;1920.00;;;;;;5089781;28;20386;-61
2023/09/19 10:55:59;;;;;;;37.90;11.80;;;819.60;1868.80;;;;;;5060293;28;20032;-64
2023/09/19 10:58:29;;;;;;;30.65;12.18;;;819.80;1868.80;;;;;;5078167;28;20039;-64
2023/09/19 11:01:18;;;;;;;24.60;11.77;;;819.80;1843.20;;;;;;5076122;28;20055;-63
2023/09/19 11:03:44;;;;;;;32.33;12.25;;;819.60;1843.20;;;;;;5090184;28;20027;-63
2023/09/19 11:06:19;;;;;;;35.78;12.10;;;819.80;1817.60;;;;;;5090380;28;20036;-63
2023/09/19 11:11:40;;;;;;;21.52;10.70;;;819.60;1817.60;;;;;;5086188;28;20039;-62
2023/09/19 11:14:24;;;;;;;33.13;12.10;;;819.80;1792.00;;;;;;5072598;28;20073;-64
2023/09/19 11:17:05;;;;;;;31.58;11.38;;;819.70;1792.00;;;;;;5064214;28;20390;-63
2023/09/19 11:23:17;;;;;;;28.02;10.10;;;820.00;1740.80;;;;;;5085126;28;20073;-61
2023/09/19 11:25:51;;;;;;;22.20;10.05;;;820.10;1740.80;;;;;;5007754;28;20041;-62
2023/09/19 11:28:21;;;;;;;19.48;10.68;;;820.10;1740.80;;;;;;5008185;28;20026;-62
2023/09/19 11:30:55;;;;;;;21.17;10.48;;;820.00;1740.80;;;;;;5008265;28;20073;-61
2023/09/19 11:33:41;;;;;;;29.63;12.20;;;844.80;1766.40;;;;;;5007742;28;20033;-62
2023/09/19 11:36:14;;;;;;;23.67;10.43;;;820.10;1689.60;;;;;;4994445;28;20076;-62
2023/09/19 11:38:45;;;;;;;25.25;10.07;;;844.90;1715.20;;;;;;5007564;28;20053;-62
2023/09/19 11:41:38;;;;;;;28.67;10.45;;;845.00;1715.20;;;;;;4984933;28;20042;-62
2023/09/19 11:44:09;;;;;;;22.98;11.32;;;844.80;1715.20;;;;;;4972499;28;20030;-64
2023/09/19 11:46:52;;;;;;;26.63;10.57;;;820.00;1715.20;;;;;;4992055;28;20117;-62
2023/09/19 11:49:21;;;;;;;31.03;12.53;;;820.00;1715.20;;;;;;5007152;28;20053;-64
2023/09/19 11:51:50;;;;;;;29.85;12.27;;;819.60;1715.20;;;;;;5007110;28;20769;-60
2023/09/19 11:54:18;;;;;;;25.90;10.82;;;819.30;1740.80;;;;;;5007086;28;20037;-62
2023/09/19 11:56:45;;;;;;;27.67;11.70;;;819.30;1740.80;;;;;;5007524;28;20038;-62
2023/09/19 11:59:21;;;;;;;24.98;11.68;;;794.40;1740.80;;;;;;5007461;28;20173;-63
2023/09/19 12:01:57;;;;;;;26.05;11.30;;;794.40;1766.40;;;;;;5011523;28;20775;-63
2023/09/19 12:04:39;;;;;;;25.23;10.18;;;794.20;1792.00;;;;;;5087291;28;20024;-61
2023/09/19 12:07:14;;;;;;;26.65;12.02;;;793.90;1817.60;;;;;;5088291;28;20020;-61
2023/09/19 12:09:47;;;;;;;27.08;11.68;;;793.70;1920.00;;;;;;5082086;28;20039;-63
2023/09/19 12:12:26;;;;;;;28.00;12.70;;;793.60;1971.20;;;;;;5087748;28;20024;-60
2023/09/19 12:14:54;;;;;;;31.00;11.55;;;768.40;1945.60;;;;;;5081660;28;20028;-62
2023/09/19 12:17:23;;;;;;;32.45;11.48;;;743.10;1894.40;;;;;;5065825;28;20037;-62
2023/09/19 12:19:53;;;;;;;21.55;9.88;;;742.70;1920.00;;;;;;5084940;28;20051;-62
2023/09/19 12:22:23;;;;;;;27.13;11.52;;;742.60;1945.60;;;;;;5087723;28;20026;-61
2023/09/19 12:24:50;;;;;;;22.38;10.15;;;742.50;1945.60;;;;;;5087716;28;20026;-62
2023/09/19 12:27:16;;;;;;;20.48;10.32;;;743.10;1996.80;;;;;;5087814;28;20028;-62